createdAt,value
2022-11-22T00:00:20.651Z,59.06
2022-11-22T00:03:07.925Z,57.25
2022-11-22T00:05:34.518Z,58.73
2022-11-22T00:08:01.638Z,60.77
2022-11-22T00:10:28.118Z,65.20
2022-11-22T00:12:54.606Z,67.55
2022-11-22T00:15:21.241Z,66.65
2022-11-22T00:17:47.672Z,65.24
2022-11-22T00:20:14.309Z,63.15
2022-11-22T00:22:44.508Z,61.04
2022-11-22T00:25:12.192Z,60.18
2022-11-22T00:27:38.626Z,60.34
2022-11-22T00:30:07.411Z,60.06
2022-11-22T00:32:33.978Z,60.22
2022-11-22T00:35:00.478Z,60.58
2022-11-22T00:37:26.874Z,60.54
2022-11-22T00:39:53.448Z,60.72
2022-11-22T00:42:19.878Z,60.62
2022-11-22T00:44:46.311Z,59.88
2022-11-22T00:47:12.782Z,59.94
2022-11-22T00:49:39.270Z,59.09
2022-11-22T00:52:05.758Z,58.58
2022-11-22T00:54:32.242Z,60.22
2022-11-22T00:56:58.678Z,61.06
2022-11-22T00:59:25.207Z,64.79
2022-11-22T01:01:51.690Z,68.44
2022-11-22T01:04:18.174Z,67.97
2022-11-22T01:06:44.809Z,65.06
2022-11-22T01:09:12.838Z,63.56
2022-11-22T01:11:39.315Z,62.90
2022-11-22T01:14:07.110Z,61.72
2022-11-22T01:16:33.718Z,61.33
2022-11-22T01:19:00.148Z,60.68
2022-11-22T01:21:26.729Z,60.79
2022-11-22T01:23:53.213Z,60.44
2022-11-22T01:26:19.644Z,60.73
2022-11-22T01:28:46.075Z,60.50
2022-11-22T01:31:12.530Z,60.14
2022-11-22T01:33:38.994Z,59.53
2022-11-22T01:36:05.579Z,59.92
2022-11-22T01:38:31.990Z,59.86
2022-11-22T01:40:58.439Z,58.04
2022-11-22T01:43:27.308Z,58.20
2022-11-22T01:45:55.933Z,59.97
2022-11-22T01:48:32.133Z,63.37
2022-11-22T01:51:32.091Z,67.13
2022-11-22T01:54:01.962Z,65.21
2022-11-22T01:56:28.406Z,63.51
2022-11-22T01:59:01.006Z,62.73
2022-11-22T02:01:27.634Z,61.75
2022-11-22T02:03:54.292Z,61.53
2022-11-22T02:06:20.670Z,61.69
2022-11-22T02:09:04.254Z,61.68
2022-11-22T02:11:34.127Z,61.21
2022-11-22T02:14:01.072Z,60.99
2022-11-22T02:16:27.587Z,61.00
2022-11-22T02:18:53.977Z,61.03
2022-11-22T02:21:20.446Z,60.82
2022-11-22T02:24:03.938Z,60.98
2022-11-22T02:26:30.472Z,61.10
2022-11-22T02:29:01.818Z,61.13
2022-11-22T02:31:44.820Z,60.71
2022-11-22T02:34:11.678Z,60.34
2022-11-22T02:36:42.408Z,60.03
2022-11-22T02:39:09.312Z,60.32
2022-11-22T02:41:36.403Z,60.32
2022-11-22T02:44:02.955Z,58.91
2022-11-22T02:46:29.302Z,58.63
2022-11-22T02:48:55.802Z,59.31
2022-11-22T02:51:22.247Z,62.10
2022-11-22T02:53:49.893Z,64.90
2022-11-22T02:56:16.842Z,69.39
2022-11-22T02:58:43.683Z,65.53
2022-11-22T03:01:11.544Z,63.10
2022-11-22T03:03:38.190Z,62.30
2022-11-22T03:06:04.820Z,61.62
2022-11-22T03:08:31.275Z,61.05
2022-11-22T03:11:00.609Z,60.90
2022-11-22T03:13:27.065Z,60.27
2022-11-22T03:15:53.619Z,59.96
2022-11-22T03:18:20.215Z,58.65
2022-11-22T03:20:46.712Z,57.36
2022-11-22T03:23:13.322Z,59.16
2022-11-22T03:25:39.990Z,61.05
2022-11-22T03:28:07.218Z,65.90
2022-11-22T03:30:33.748Z,67.18
2022-11-22T03:33:00.383Z,67.18
2022-11-22T03:35:26.814Z,62.06
2022-11-22T03:37:53.284Z,58.82
2022-11-22T03:40:20.947Z,55.45
2022-11-22T03:42:47.391Z,57.55
2022-11-22T03:45:13.980Z,59.86
2022-11-22T03:47:40.716Z,61.82
2022-11-22T03:50:07.879Z,64.10
2022-11-22T03:52:34.307Z,69.31
2022-11-22T03:55:01.211Z,67.40
2022-11-22T03:57:27.612Z,62.56
2022-11-22T03:59:54.034Z,60.91
2022-11-22T04:02:20.460Z,60.32
2022-11-22T04:04:47.019Z,59.85
2022-11-22T04:07:13.522Z,59.84
2022-11-22T04:09:39.936Z,60.09
2022-11-22T04:12:06.573Z,60.11
2022-11-22T04:14:52.051Z,59.93
2022-11-22T04:17:38.450Z,60.46
2022-11-22T04:20:25.419Z,60.68
2022-11-22T04:23:03.059Z,61.41
2022-11-22T04:25:31.843Z,61.36
2022-11-22T04:27:58.480Z,61.12
2022-11-22T04:30:43.946Z,61.11
2022-11-22T04:33:10.808Z,61.19
2022-11-22T04:35:37.808Z,60.92
2022-11-22T04:38:04.587Z,60.53
2022-11-22T04:40:32.552Z,60.54
2022-11-22T04:43:18.543Z,60.59
2022-11-22T04:45:45.179Z,61.20
2022-11-22T04:48:12.069Z,61.28
2022-11-22T04:50:58.444Z,61.30
2022-11-22T04:53:25.221Z,60.77
2022-11-22T04:55:51.797Z,60.51
2022-11-22T04:58:18.518Z,59.66
2022-11-22T05:00:45.067Z,59.06
2022-11-22T05:03:11.609Z,57.67
2022-11-22T05:05:40.152Z,57.80
2022-11-22T05:08:07.123Z,57.33
2022-11-22T05:10:52.861Z,60.02
2022-11-22T05:13:21.500Z,60.32
2022-11-22T05:15:48.136Z,59.63
2022-11-22T05:18:14.567Z,65.80
2022-11-22T05:20:41.002Z,70.39
2022-11-22T05:23:26.737Z,69.33
2022-11-22T05:25:53.221Z,67.38
2022-11-22T05:28:19.750Z,65.80
2022-11-22T05:30:46.182Z,64.50
2022-11-22T05:33:12.722Z,63.79
2022-11-22T05:35:39.664Z,64.88
2022-11-22T05:38:06.004Z,61.83
2022-11-22T05:40:32.425Z,57.43
2022-11-22T05:42:58.959Z,56.01
2022-11-22T05:45:25.497Z,57.86
2022-11-22T05:47:51.840Z,59.62
2022-11-22T05:50:18.260Z,60.65
2022-11-22T05:52:54.415Z,61.07
2022-11-22T05:55:20.924Z,62.04
2022-11-22T05:57:47.379Z,68.51
2022-11-22T06:00:14.638Z,69.54
2022-11-22T06:02:41.243Z,65.62
2022-11-22T06:05:08.425Z,62.01
2022-11-22T06:07:34.902Z,59.55
2022-11-22T06:10:01.399Z,56.64
2022-11-22T06:12:27.848Z,57.35
2022-11-22T06:14:54.349Z,59.62
2022-11-22T06:17:20.788Z,60.16
2022-11-22T06:19:47.139Z,67.52
2022-11-22T06:22:13.565Z,67.80
2022-11-22T06:24:42.229Z,63.54
2022-11-22T06:27:08.867Z,62.18
2022-11-22T06:29:35.299Z,60.95
2022-11-22T06:32:03.839Z,60.05
2022-11-22T06:34:30.583Z,58.35
2022-11-22T06:36:57.050Z,57.59
2022-11-22T06:39:23.460Z,58.62
2022-11-22T06:41:49.913Z,58.85
2022-11-22T06:44:16.450Z,62.76
2022-11-22T06:46:42.882Z,66.64
2022-11-22T06:49:09.740Z,67.31
2022-11-22T06:51:36.151Z,65.45
2022-11-22T06:54:02.686Z,62.29
2022-11-22T06:56:37.099Z,57.33
2022-11-22T06:59:05.077Z,54.57
2022-11-22T07:01:32.087Z,57.23
2022-11-22T07:03:59.313Z,59.34
2022-11-22T07:06:32.835Z,60.81
2022-11-22T07:09:00.540Z,64.93
2022-11-22T07:11:29.314Z,67.26
2022-11-22T07:13:59.219Z,64.39
2022-11-22T07:16:29.964Z,64.44
2022-11-22T07:18:58.762Z,62.01
2022-11-22T07:21:25.693Z,56.51
2022-11-22T07:23:53.607Z,55.87
2022-11-22T07:26:21.931Z,57.25
2022-11-22T07:28:48.361Z,58.09
2022-11-22T07:31:15.834Z,61.29
2022-11-22T07:33:43.074Z,66.01
2022-11-22T07:36:20.678Z,69.89
2022-11-22T07:38:48.044Z,65.76
2022-11-22T07:41:15.271Z,64.16
2022-11-22T07:43:41.814Z,63.34
2022-11-22T07:46:25.547Z,62.87
2022-11-22T07:48:52.185Z,62.63
2022-11-22T07:51:18.553Z,62.03
2022-11-22T07:53:45.072Z,61.31
2022-11-22T07:56:11.890Z,61.13
2022-11-22T07:58:38.631Z,60.96
2022-11-22T08:01:16.754Z,60.73
2022-11-22T08:03:44.152Z,60.52
2022-11-22T08:06:11.441Z,60.29
2022-11-22T08:08:37.956Z,60.06
2022-11-22T08:11:05.022Z,59.51
2022-11-22T08:13:32.278Z,57.34
2022-11-22T08:16:07.719Z,59.86
2022-11-22T08:18:35.070Z,62.72
2022-11-22T08:21:06.690Z,66.89
2022-11-22T08:23:33.673Z,62.60
2022-11-22T08:26:00.303Z,57.61
2022-11-22T08:28:26.835Z,55.05
2022-11-22T08:31:03.122Z,56.72
2022-11-22T08:33:29.734Z,60.77
2022-11-22T08:35:56.381Z,63.94
2022-11-22T08:38:23.520Z,66.38
2022-11-22T08:40:50.327Z,65.85
2022-11-22T08:43:16.963Z,64.54
2022-11-22T08:45:43.535Z,63.63
2022-11-22T08:48:10.069Z,62.48
2022-11-22T08:50:36.501Z,61.33
2022-11-22T08:53:02.850Z,60.67
2022-11-22T08:55:29.365Z,59.79
2022-11-22T08:57:59.632Z,59.62
2022-11-22T09:00:31.740Z,58.25
2022-11-22T09:02:59.770Z,57.90
2022-11-22T09:05:26.241Z,58.28
2022-11-22T09:10:39.391Z,61.16
2022-11-22T09:13:05.926Z,63.71
2022-11-22T09:15:32.361Z,67.30
2022-11-22T09:18:02.490Z,67.08
2022-11-22T09:20:29.541Z,65.84
2022-11-22T09:22:55.987Z,63.59
2022-11-22T09:25:22.386Z,62.44
2022-11-22T09:27:49.022Z,60.87
2022-11-22T09:30:15.458Z,57.83
2022-11-22T09:32:44.153Z,57.47
2022-11-22T09:35:10.712Z,58.52
2022-11-22T09:37:37.207Z,59.36
2022-11-22T09:40:04.663Z,59.68
2022-11-22T09:42:40.989Z,60.82
2022-11-22T09:45:32.812Z,63.69
2022-11-22T09:48:37.450Z,67.90
2022-11-22T09:51:17.124Z,67.03
2022-11-22T09:53:50.109Z,64.82
2022-11-22T09:56:17.043Z,63.07
2022-11-22T09:58:57.965Z,62.65
2022-11-22T10:01:38.679Z,59.72
2022-11-22T10:04:19.153Z,57.84
2022-11-22T10:06:49.884Z,58.51
2022-11-22T10:09:40.098Z,59.87
2022-11-22T10:12:19.488Z,60.54
2022-11-22T10:15:21.374Z,61.03
2022-11-22T10:18:36.761Z,61.11
2022-11-22T10:21:03.312Z,65.71
2022-11-22T10:23:32.258Z,66.91
2022-11-22T10:26:03.024Z,65.98
2022-11-22T10:28:35.373Z,63.79
2022-11-22T10:31:14.209Z,61.58
2022-11-22T10:33:52.516Z,61.29
2022-11-22T10:36:46.554Z,60.37
2022-11-22T10:39:37.746Z,57.98
2022-11-22T10:42:35.203Z,56.85
2022-11-22T10:45:11.326Z,57.91
2022-11-22T10:48:03.978Z,58.50
2022-11-22T10:50:57.849Z,58.86
2022-11-22T10:53:39.838Z,61.02
2022-11-22T10:56:40.536Z,62.30
2022-11-22T10:59:28.955Z,68.10
2022-11-22T11:02:20.439Z,69.25
2022-11-22T11:04:46.955Z,64.62
2022-11-22T11:07:16.807Z,62.23
2022-11-22T11:10:22.285Z,59.83
2022-11-22T11:12:56.270Z,56.98
2022-11-22T11:15:43.768Z,58.43
2022-11-22T11:18:17.340Z,60.52
2022-11-22T11:20:46.979Z,60.39
2022-11-22T11:23:15.862Z,62.10
2022-11-22T11:25:44.806Z,65.82
2022-11-22T11:28:17.302Z,66.58
2022-11-22T11:30:51.818Z,65.67
2022-11-22T11:33:26.467Z,64.88
2022-11-22T11:36:10.437Z,63.51
2022-11-22T11:38:46.091Z,62.70
2022-11-22T11:41:33.910Z,61.36
2022-11-22T11:44:04.339Z,60.32
2022-11-22T11:46:39.862Z,60.89
2022-11-22T11:49:26.141Z,58.96
2022-11-22T11:51:57.591Z,57.28
2022-11-22T11:54:47.389Z,57.35
2022-11-22T11:57:34.296Z,57.28
2022-11-22T12:00:04.339Z,60.14
2022-11-22T12:02:38.980Z,58.99
2022-11-22T12:05:13.037Z,60.82
2022-11-22T12:07:47.366Z,61.97
2022-11-22T12:10:31.427Z,68.80
2022-11-22T12:14:04.552Z,67.65
2022-11-22T12:16:33.797Z,64.37
2022-11-22T12:19:34.252Z,63.95
2022-11-22T12:22:03.404Z,63.85
2022-11-22T12:24:52.287Z,63.05
2022-11-22T12:27:22.471Z,61.89
2022-11-22T12:29:48.831Z,62.12
2022-11-22T12:32:28.341Z,61.42
2022-11-22T12:35:09.853Z,61.80
2022-11-22T12:38:05.497Z,61.30
2022-11-22T12:40:41.428Z,60.77
2022-11-22T12:43:21.862Z,61.25
2022-11-22T12:46:00.220Z,61.04
2022-11-22T12:48:34.722Z,60.90
2022-11-22T12:51:14.584Z,60.72
2022-11-22T12:53:42.270Z,60.03
2022-11-22T12:56:43.834Z,60.52
2022-11-22T12:59:10.284Z,60.03
2022-11-22T13:01:36.717Z,59.78
2022-11-22T13:04:09.351Z,59.58
2022-11-22T13:06:50.941Z,58.32
2022-11-22T13:09:21.208Z,56.32
2022-11-22T13:11:54.465Z,57.94
2022-11-22T13:14:47.096Z,60.07
2022-11-22T13:17:15.476Z,61.56
2022-11-22T13:19:50.352Z,66.43
2022-11-22T13:22:42.650Z,68.99
2022-11-22T13:25:36.164Z,65.88
2022-11-22T13:28:09.023Z,63.93
2022-11-22T13:30:36.478Z,62.79
2022-11-22T13:33:03.082Z,61.54
2022-11-22T13:35:38.938Z,61.37
2022-11-22T13:38:14.789Z,60.91
2022-11-22T13:40:51.413Z,60.75
2022-11-22T13:43:22.304Z,59.75
2022-11-22T13:45:53.992Z,57.28
2022-11-22T13:48:39.114Z,57.40
2022-11-22T13:51:14.226Z,59.31
2022-11-22T13:53:45.087Z,61.32
2022-11-22T13:56:14.903Z,61.28
2022-11-22T13:58:50.773Z,66.89
2022-11-22T14:01:34.428Z,68.25
2022-11-22T14:04:16.500Z,63.51
2022-11-22T14:06:53.552Z,62.85
2022-11-22T14:09:41.774Z,62.25
2022-11-22T14:12:31.184Z,61.60
2022-11-22T14:15:54.295Z,60.64
2022-11-22T14:18:35.521Z,60.02
2022-11-22T14:21:47.400Z,59.26
2022-11-22T14:24:48.734Z,57.82
2022-11-22T14:27:27.595Z,59.76
2022-11-22T14:30:12.562Z,60.76
2022-11-22T14:33:13.705Z,61.24
2022-11-22T14:36:06.054Z,63.18
2022-11-22T14:38:39.727Z,72.30
2022-11-22T14:41:28.705Z,63.78
2022-11-22T14:44:16.871Z,58.60
2022-11-22T14:46:54.113Z,54.45
2022-11-22T14:49:34.523Z,55.72
2022-11-22T14:52:01.127Z,57.36
2022-11-22T14:54:33.425Z,59.47
2022-11-22T14:57:04.102Z,60.49
2022-11-22T14:59:57.481Z,61.21
2022-11-22T15:02:36.366Z,61.74
2022-11-22T15:09:17.864Z,61.00
2022-11-22T15:09:22.561Z,61.50
2022-11-22T15:12:15.798Z,61.92
2022-11-22T15:59:34.973Z,62.62
2022-11-22T16:02:01.474Z,62.08
2022-11-22T16:04:33.583Z,61.74
2022-11-22T16:07:02.620Z,61.57
2022-11-22T16:09:34.041Z,60.80
2022-11-22T16:12:04.157Z,60.18
2022-11-22T16:14:42.920Z,59.93
2022-11-22T16:17:32.390Z,59.57
2022-11-22T16:20:29.236Z,59.76
2022-11-22T16:23:08.674Z,59.49
2022-11-22T16:25:37.872Z,59.62
2022-11-22T16:28:31.742Z,58.39
2022-11-22T16:31:20.602Z,58.14
2022-11-22T16:33:47.157Z,60.38
2022-11-22T16:36:15.209Z,62.62
2022-11-22T16:38:42.588Z,67.96
2022-11-22T16:41:28.378Z,67.31
2022-11-22T16:43:58.984Z,66.07
2022-11-22T16:46:25.422Z,65.70
2022-11-22T16:48:52.098Z,64.82
2022-11-22T16:51:29.421Z,64.65
2022-11-22T16:54:00.170Z,64.04
2022-11-22T16:56:28.490Z,63.69
2022-11-22T16:58:56.614Z,63.05
2022-11-22T17:01:25.899Z,62.33
2022-11-22T17:03:54.906Z,63.49
2022-11-22T17:06:24.364Z,62.33
2022-11-22T17:08:53.726Z,62.08
2022-11-22T17:11:23.214Z,62.18
2022-11-22T17:13:49.851Z,61.95
2022-11-22T17:16:19.510Z,61.75
2022-11-22T17:18:47.012Z,61.86
2022-11-22T17:21:23.853Z,62.14
2022-11-22T17:23:50.423Z,62.43
2022-11-22T17:26:16.857Z,62.63
2022-11-22T17:28:43.276Z,62.37
2022-11-22T17:31:14.635Z,62.66
2022-11-22T17:33:41.169Z,62.58
2022-11-22T17:36:34.024Z,62.65
2022-11-22T17:39:05.674Z,62.78
2022-11-22T17:41:32.925Z,62.57
2022-11-22T17:44:00.230Z,62.37
2022-11-22T17:46:28.451Z,62.72
2022-11-22T17:48:59.887Z,63.37
2022-11-22T17:51:27.505Z,63.22
2022-11-22T17:53:55.019Z,62.97
2022-11-22T17:56:21.373Z,62.93
2022-11-22T17:58:48.191Z,62.86
2022-11-22T18:01:19.545Z,62.94
2022-11-22T18:03:46.529Z,63.12
2022-11-22T18:06:14.245Z,63.31
2022-11-22T18:08:46.397Z,63.28
2022-11-22T18:11:14.072Z,63.32
2022-11-22T18:13:40.551Z,63.14
2022-11-22T18:16:11.499Z,63.12
2022-11-22T18:18:56.248Z,62.93
2022-11-22T18:21:24.376Z,62.98
2022-11-22T18:23:51.117Z,62.63
2022-11-22T18:26:38.921Z,62.72
2022-11-22T18:31:52.904Z,62.98
2022-11-22T18:34:21.290Z,63.88
2022-11-22T18:36:57.578Z,63.72
2022-11-22T18:39:29.368Z,63.23
2022-11-22T18:41:56.111Z,63.82
2022-11-22T18:44:22.523Z,63.79
2022-11-22T18:46:49.318Z,63.52
2022-11-22T18:49:15.924Z,63.76
2022-11-22T18:51:42.391Z,64.38
2022-11-22T18:54:09.953Z,64.31
2022-11-22T18:56:39.346Z,64.13
2022-11-22T18:59:06.161Z,64.22
2022-11-22T19:01:34.122Z,64.12
2022-11-22T19:04:01.712Z,64.06
2022-11-22T19:06:28.169Z,64.18
2022-11-22T19:08:55.088Z,64.11
2022-11-22T19:11:22.034Z,64.10
2022-11-22T19:13:48.567Z,64.02
2022-11-22T19:16:18.573Z,64.28
2022-11-22T19:18:45.322Z,64.37
2022-11-22T19:21:14.509Z,64.04
2022-11-22T19:23:41.258Z,64.58
2022-11-22T19:26:09.518Z,64.76
2022-11-22T19:28:36.332Z,64.56
2022-11-22T19:31:05.845Z,63.95
2022-11-22T19:33:33.438Z,63.94
2022-11-22T19:36:03.671Z,64.00
2022-11-22T19:38:30.503Z,63.80
2022-11-22T19:40:57.341Z,64.39
2022-11-22T19:43:24.442Z,64.58
2022-11-22T19:45:51.037Z,64.46
2022-11-22T19:48:18.274Z,64.34
2022-11-22T19:50:44.975Z,64.35
2022-11-22T19:53:11.450Z,63.93
2022-11-22T19:55:42.180Z,64.61
2022-11-22T19:58:11.786Z,64.49
2022-11-22T20:00:38.319Z,64.69
2022-11-22T20:03:04.761Z,64.59
2022-11-22T20:05:31.850Z,64.50
2022-11-22T20:07:58.639Z,64.46
2022-11-22T20:10:25.379Z,64.15
2022-11-22T20:12:52.093Z,64.97
2022-11-22T20:15:18.561Z,64.41
2022-11-22T20:17:45.084Z,64.43
2022-11-22T20:20:11.519Z,64.67
2022-11-22T20:22:37.952Z,64.38
2022-11-22T20:25:05.506Z,64.19
2022-11-22T20:27:32.147Z,63.72
2022-11-22T20:30:00.727Z,63.26
2022-11-22T20:32:30.335Z,63.69
2022-11-22T20:34:56.798Z,63.42
2022-11-22T20:37:23.422Z,63.75
2022-11-22T20:39:49.904Z,64.30
2022-11-22T20:45:07.887Z,64.42
2022-11-22T20:47:35.244Z,64.24
2022-11-22T20:50:01.679Z,64.16
2022-11-22T20:52:28.313Z,64.20
2022-11-22T20:54:55.348Z,64.06
2022-11-22T20:57:24.449Z,64.10
2022-11-22T20:59:50.886Z,63.70
2022-11-22T21:02:17.350Z,63.75
2022-11-22T21:04:43.754Z,63.58
2022-11-22T21:07:10.195Z,63.61
2022-11-22T21:09:36.922Z,63.63
2022-11-22T21:12:04.168Z,63.57
2022-11-22T21:14:31.012Z,64.06
2022-11-22T21:16:57.981Z,63.78
2022-11-22T21:19:24.606Z,63.55
2022-11-22T21:21:53.145Z,63.44
2022-11-22T21:24:19.610Z,63.67
2022-11-22T21:26:46.043Z,63.98
2022-11-22T21:29:16.506Z,64.01
2022-11-22T21:31:43.510Z,63.72
2022-11-22T21:34:10.745Z,63.81
2022-11-22T21:36:37.130Z,63.70
2022-11-22T21:39:03.698Z,63.64
2022-11-22T21:41:45.381Z,63.72
2022-11-22T21:44:11.925Z,63.82
2022-11-22T21:46:38.603Z,63.96
2022-11-22T21:49:05.097Z,63.96
2022-11-22T21:51:31.609Z,63.68
2022-11-22T21:53:59.216Z,63.75
2022-11-22T21:56:26.264Z,63.94
2022-11-22T21:58:52.900Z,63.75
2022-11-22T22:01:19.413Z,63.86
2022-11-22T22:03:46.078Z,64.00
2022-11-22T22:06:12.537Z,63.50
2022-11-22T22:08:40.054Z,63.56
2022-11-22T22:11:06.901Z,64.10
2022-11-22T22:13:33.366Z,64.20
2022-11-22T22:16:12.358Z,64.51
2022-11-22T22:18:38.760Z,64.03
2022-11-22T22:21:07.501Z,64.27
2022-11-22T22:23:35.098Z,64.53
2022-11-22T22:26:03.831Z,64.16
2022-11-22T22:28:31.681Z,63.75
2022-11-22T22:31:23.103Z,63.50
2022-11-22T22:33:54.467Z,63.25
2022-11-22T22:36:21.801Z,62.96
2022-11-22T22:38:48.273Z,62.73
2022-11-22T22:41:14.891Z,63.26
2022-11-22T22:43:43.734Z,63.20
2022-11-22T22:46:21.117Z,63.15
2022-11-22T22:48:48.382Z,63.15
2022-11-22T22:51:17.230Z,63.39
2022-11-22T22:53:44.032Z,63.24
2022-11-22T22:56:10.614Z,63.13
2022-11-22T22:58:37.207Z,63.46
2022-11-22T23:01:27.073Z,63.66
2022-11-22T23:03:59.000Z,63.60
2022-11-22T23:06:36.336Z,63.62
2022-11-22T23:09:05.167Z,63.21
2022-11-22T23:11:50.848Z,62.55
2022-11-22T23:14:20.290Z,62.88
2022-11-22T23:16:47.059Z,62.63
2022-11-22T23:19:13.788Z,62.75
2022-11-22T23:21:40.427Z,62.50
2022-11-22T23:24:07.572Z,61.90
2022-11-22T23:26:34.053Z,61.92
2022-11-22T23:29:00.926Z,61.87
2022-11-22T23:31:27.584Z,62.10
2022-11-22T23:33:54.185Z,62.36
2022-11-22T23:36:21.687Z,62.15
2022-11-22T23:38:48.413Z,62.08
2022-11-22T23:41:19.147Z,62.35
2022-11-22T23:43:46.296Z,61.96
2022-11-22T23:46:17.336Z,62.48
2022-11-22T23:48:44.697Z,62.30
2022-11-22T23:51:11.852Z,61.85
2022-11-22T23:53:38.479Z,62.30
2022-11-22T23:56:06.648Z,62.41
2022-11-22T23:58:33.808Z,62.69
